Time;durP1;ratioP1;P1;durP2;ratioP2;P2;SDS_P1;SDS_P2;PMS_P1;PMS_P2;Temp;Humidity;BMP_temperature;BMP_pressure;BME280_temperature;BME280_humidity;BME280_pressure;Samples;Min_cycle;Max_cycle;Signal;HPM_P1;HPM_P2
2022/04/01 00:01:13;;;;;;;16.92;8.40;;;;;;;3.77;71.31;98804.09;4995495;28;20446;-79
2022/04/01 00:03:38;;;;;;;12.85;7.57;;;;;;;3.77;70.97;98803.31;5015035;28;20088;-79
2022/04/01 00:06:04;;;;;;;15.27;7.55;;;;;;;3.73;70.72;98788.63;5013415;28;20030;-79
2022/04/01 00:08:29;;;;;;;13.50;8.02;;;;;;;3.72;70.74;98799.09;5030828;28;20033;-79
2022/04/01 00:10:55;;;;;;;13.68;7.57;;;;;;;3.72;71.24;98787.84;5023577;28;20041;-78
2022/04/01 00:13:22;;;;;;;18.30;8.52;;;;;;;3.70;70.89;98784.69;5026842;28;20076;-79
2022/04/01 00:15:47;;;;;;;13.60;7.30;;;;;;;3.77;70.29;98792.06;5028576;28;20021;-78
2022/04/01 00:18:14;;;;;;;13.82;7.38;;;;;;;3.59;70.06;98761.88;5037310;28;20018;-78
2022/04/01 00:20:40;;;;;;;13.15;7.50;;;;;;;3.63;70.79;98784.25;5039069;28;20042;-78
2022/04/01 00:23:08;;;;;;;12.20;7.45;;;;;;;3.67;70.41;98787.69;5054891;28;20026;-79
2022/04/01 00:25:34;;;;;;;12.32;7.13;;;;;;;3.62;70.14;98791.13;5065163;28;20048;-78
2022/04/01 00:28:10;;;;;;;13.55;7.95;;;;;;;3.52;70.85;98781.88;5056931;28;20062;-78
2022/04/01 00:30:38;;;;;;;16.80;7.80;;;;;;;3.44;71.14;98791.91;5009219;28;20029;-78
2022/04/01 00:33:06;;;;;;;13.48;7.25;;;;;;;3.30;71.50;98784.88;5008497;28;20030;-78
2022/04/01 00:35:32;;;;;;;12.38;7.75;;;;;;;3.36;72.09;98793.44;5032728;28;20113;-77
2022/04/01 00:37:59;;;;;;;16.83;8.32;;;;;;;3.28;71.85;98778.13;5022024;28;20037;-78
2022/04/01 00:40:25;;;;;;;19.67;9.05;;;;;;;3.26;71.89;98777.78;5013271;28;20041;-79
2022/04/01 00:42:51;;;;;;;11.75;8.63;;;;;;;3.25;73.33;98798.75;4996505;28;20030;-78
2022/04/01 00:45:18;;;;;;;14.55;8.02;;;;;;;3.11;73.46;98779.69;5014184;28;20026;-78
2022/04/01 00:47:48;;;;;;;19.02;9.80;;;;;;;3.13;73.68;98794.81;5013789;28;20471;-78
2022/04/01 00:50:14;;;;;;;17.58;9.00;;;;;;;2.90;74.26;98761.66;5013872;28;20050;-78
2022/04/01 00:52:43;;;;;;;16.73;8.77;;;;;;;3.10;74.48;98801.41;5012483;28;20434;-79
2022/04/01 00:55:09;;;;;;;15.00;8.65;;;;;;;3.03;74.69;98796.06;5013077;28;20058;-79
2022/04/01 00:57:49;;;;;;;14.25;8.98;;;;;;;2.96;75.01;98785.88;5028763;28;20487;-77
2022/04/01 01:00:17;;;;;;;14.82;8.15;;;;;;;2.97;75.32;98795.09;4996890;28;20059;-77
2022/04/01 01:02:43;;;;;;;12.32;7.28;;;;;;;2.80;76.02;98774.13;5013158;28;20379;-77
2022/04/01 01:05:09;;;;;;;14.45;8.23;;;;;;;2.69;76.03;98766.13;5043389;28;20518;-78
2022/04/01 01:07:39;;;;;;;12.40;7.57;;;;;;;2.88;75.55;98793.03;5046169;28;20368;-77
2022/04/01 01:10:06;;;;;;;13.70;6.97;;;;;;;2.90;76.09;98798.22;5013692;28;20036;-79
2022/04/01 01:12:32;;;;;;;12.90;7.85;;;;;;;2.87;76.40;98797.09;5046223;28;20033;-78
2022/04/01 01:15:07;;;;;;;11.90;7.57;;;;;;;2.87;76.24;98790.69;5000515;28;20422;-79
2022/04/01 01:17:34;;;;;;;12.30;7.70;;;;;;;2.79;76.31;98778.19;5017072;28;20041;-77
2022/04/01 01:20:00;;;;;;;12.15;6.53;;;;;;;2.85;76.02;98784.75;5032444;28;20042;-78
2022/04/01 01:22:27;;;;;;;14.93;7.05;;;;;;;2.70;76.04;98766.91;5032155;28;20046;-78
2022/04/01 01:24:55;;;;;;;13.35;7.90;;;;;;;2.71;76.01;98768.47;5019696;28;20467;-78
2022/04/01 01:27:21;;;;;;;10.07;6.40;;;;;;;2.77;76.44;98777.84;4994306;28;20042;-78
2022/04/01 01:29:54;;;;;;;13.88;7.78;;;;;;;2.73;76.58;98777.22;4982468;28;20042;-78
2022/04/01 01:32:22;;;;;;;17.27;8.07;;;;;;;2.78;76.65;98788.63;4977709;28;20048;-77
2022/04/01 01:34:54;;;;;;;15.07;7.93;;;;;;;2.71;76.53;98777.69;4994030;28;20077;-78
2022/04/01 01:37:22;;;;;;;15.48;7.28;;;;;;;2.73;76.44;98783.63;4994725;28;20058;-78
2022/04/01 01:39:49;;;;;;;16.50;8.85;;;;;;;2.73;76.82;98777.22;4995887;28;20034;-78
2022/04/01 01:42:15;;;;;;;14.13;7.38;;;;;;;2.70;76.93;98781.75;4997112;28;20481;-78
2022/04/01 01:44:42;;;;;;;11.27;6.93;;;;;;;2.65;76.95;98779.53;4979970;28;20109;-78
2022/04/01 01:47:09;;;;;;;13.52;7.38;;;;;;;2.58;76.71;98762.97;4995169;28;20376;-78
2022/04/01 01:49:34;;;;;;;13.07;7.20;;;;;;;2.55;76.75;98767.50;4978857;28;20062;-78
2022/04/01 01:55:06;;;;;;;13.77;7.07;;;;;;;2.54;75.86;98756.69;4994842;28;20498;-79
2022/04/01 01:57:35;;;;;;;11.57;6.85;;;;;;;2.41;76.27;98751.19;5001725;28;20045;-79
2022/04/01 02:00:11;;;;;;;14.65;7.28;;;;;;;2.49;76.51;98783.38;5036217;28;20033;-79
2022/04/01 02:02:38;;;;;;;14.73;7.18;;;;;;;2.47;76.35;98762.59;5002085;28;20037;-79
2022/04/01 02:05:06;;;;;;;14.48;7.65;;;;;;;2.40;76.40;98760.09;5018222;28;20026;-78
2022/04/01 02:07:33;;;;;;;12.20;7.72;;;;;;;2.34;76.80;98759.13;5018453;28;20493;-77
2022/04/01 02:09:59;;;;;;;17.13;7.82;;;;;;;2.33;76.84;98769.56;5035371;28;20047;-78
2022/04/01 02:12:24;;;;;;;13.30;6.88;;;;;;;2.23;77.25;98765.13;5018702;28;20125;-79
2022/04/01 02:14:51;;;;;;;16.67;7.53;;;;;;;2.29;77.45;98770.94;5049549;28;20041;-78
2022/04/01 02:17:19;;;;;;;12.40;6.78;;;;;;;2.22;77.79;98771.25;5034889;28;20051;-77
2022/04/01 02:19:44;;;;;;;15.63;7.05;;;;;;;2.07;77.55;98754.16;5051256;28;20102;-77
2022/04/01 02:22:18;;;;;;;12.45;6.63;;;;;;;2.20;77.57;98776.53;5047545;28;20550;-78
2022/04/01 02:24:50;;;;;;;12.80;7.45;;;;;;;2.18;77.62;98766.53;5014257;28;20029;-77
2022/04/01 02:27:17;;;;;;;11.95;7.90;;;;;;;2.15;78.50;98770.25;5016104;28;20033;-78
2022/04/01 02:29:47;;;;;;;13.27;7.55;;;;;;;2.15;77.56;98766.66;5016231;28;20026;-77
2022/04/01 02:32:13;;;;;;;16.75;7.68;;;;;;;2.15;77.67;98769.47;5015812;28;20026;-77
2022/04/01 02:34:40;;;;;;;13.05;7.80;;;;;;;2.08;77.60;98762.09;5014860;28;20037;-78
2022/04/01 02:37:07;;;;;;;14.85;7.50;;;;;;;2.02;77.67;98749.91;5016093;28;20057;-78
2022/04/01 02:39:34;;;;;;;12.07;6.80;;;;;;;2.14;77.75;98770.72;5014579;28;20037;-80
2022/04/01 02:42:03;;;;;;;11.45;6.82;;;;;;;2.06;77.81;98756.19;5014808;28;20068;-77
2022/04/01 02:44:28;;;;;;;15.48;7.85;;;;;;;2.08;77.75;98755.69;4997779;28;20026;-77
2022/04/01 02:46:54;;;;;;;14.77;7.47;;;;;;;2.10;77.68;98762.44;5014205;28;20084;-78
2022/04/01 02:49:21;;;;;;;11.75;7.25;;;;;;;2.04;77.83;98755.06;5015591;28;20486;-78
2022/04/01 02:51:47;;;;;;;11.60;7.63;;;;;;;2.00;78.04;98743.97;5015608;28;20088;-78
2022/04/01 02:54:29;;;;;;;13.18;7.78;;;;;;;2.08;78.01;98764.91;5014217;28;20077;-78
2022/04/01 02:56:55;;;;;;;12.60;6.75;;;;;;;2.04;77.70;98769.09;5046703;28;20087;-79
2022/04/01 02:59:22;;;;;;;12.13;7.72;;;;;;;1.95;78.16;98757.81;5030638;28;20509;-77
2022/04/01 03:01:48;;;;;;;12.95;7.75;;;;;;;2.04;78.29;98778.31;5013729;28;20033;-77
2022/04/01 03:04:20;;;;;;;11.48;6.85;;;;;;;2.03;78.19;98768.31;4997563;28;20022;-78
2022/04/01 03:06:45;;;;;;;17.20;7.20;;;;;;;1.90;78.50;98745.16;5014530;28;20026;-78
2022/04/01 03:09:15;;;;;;;12.13;7.53;;;;;;;1.98;78.49;98766.09;5014971;28;20398;-79
2022/04/01 03:11:43;;;;;;;19.80;8.02;;;;;;;1.96;78.71;98760.19;5014538;28;20038;-78
2022/04/01 03:14:11;;;;;;;13.68;7.78;;;;;;;1.95;78.83;98761.41;5030924;28;20029;-78
2022/04/01 03:16:43;;;;;;;12.07;7.03;;;;;;;1.94;78.67;98764.66;5031209;28;20033;-78
2022/04/01 03:19:10;;;;;;;15.13;8.70;;;;;;;1.74;78.01;98731.31;5015891;28;20128;-78
2022/04/01 03:21:39;;;;;;;15.07;7.85;;;;;;;1.84;78.71;98749.00;5033800;28;20072;-78
2022/04/01 03:24:09;;;;;;;17.63;8.20;;;;;;;1.89;78.63;98752.00;5032010;28;20027;-77
2022/04/01 03:26:41;;;;;;;16.17;8.50;;;;;;;1.80;77.88;98729.50;5050800;28;20402;-77
2022/04/01 03:29:07;;;;;;;;;;;;;;;1.95;78.28;98760.63;5035353;28;20390;-78
2022/04/01 03:31:48;;;;;;;15.10;8.60;;;;;;;1.82;78.25;98746.69;5000412;28;19916;-79
2022/04/01 03:34:15;;;;;;;17.40;9.38;;;;;;;1.76;78.23;98744.91;5017080;28;20025;-78
2022/04/01 03:36:44;;;;;;;24.30;8.63;;;;;;;1.72;78.10;98745.84;5050804;28;20036;-78
2022/04/01 03:39:10;;;;;;;17.05;8.07;;;;;;;1.73;78.95;98763.44;5051577;28;20033;-79
2022/04/01 03:41:39;;;;;;;15.57;8.73;;;;;;;1.72;78.53;98756.28;5017272;28;20036;-79
2022/04/01 03:44:06;;;;;;;20.52;8.40;;;;;;;1.66;78.62;98756.06;5016318;28;20075;-79
2022/04/01 03:46:50;;;;;;;14.98;8.90;;;;;;;1.62;78.29;98749.81;5017857;28;20071;-78
2022/04/01 03:49:22;;;;;;;13.13;8.10;;;;;;;1.50;78.89;98744.25;5036410;28;20199;-78
2022/04/01 03:51:49;;;;;;;;;;;;;;;1.59;79.06;98752.72;5018424;28;20047;-78
2022/04/01 03:54:15;;;;;;;13.35;8.52;;;;;;;1.56;79.01;98753.66;5018380;28;19938;-77
2022/04/01 03:56:45;;;;;;;13.20;8.77;;;;;;;1.62;79.04;98765.88;5018183;28;20097;-77
2022/04/01 03:59:12;;;;;;;18.67;9.45;;;;;;;1.54;79.27;98756.13;5018579;28;20040;-79
2022/04/01 04:01:39;;;;;;;11.23;7.38;;;;;;;1.50;78.87;98747.06;5050935;28;20041;-78
2022/04/01 04:04:06;;;;;;;17.40;8.00;;;;;;;1.58;79.36;98768.03;5037792;28;20034;-78
2022/04/01 04:06:38;;;;;;;16.60;7.60;;;;;;;1.54;78.87;98756.91;5037500;28;20505;-78
2022/04/01 04:09:07;;;;;;;14.68;8.30;;;;;;;1.34;79.12;98719.97;5036757;28;20033;-77
2022/04/01 04:11:34;;;;;;;19.27;9.23;;;;;;;1.63;79.03;98761.78;5051522;28;20381;-77
2022/04/01 04:14:02;;;;;;;18.90;8.93;;;;;;;1.64;78.58;98752.16;5018593;28;20376;-78
2022/04/01 04:16:36;;;;;;;15.80;8.60;;;;;;;1.64;78.08;98761.34;5036626;28;20084;-78
2022/04/01 04:19:08;;;;;;;20.15;9.82;;;;;;;1.65;78.80;98759.34;5038284;28;20485;-78
2022/04/01 04:22:07;;;;;;;13.18;8.68;;;;;;;1.67;78.08;98770.91;5036616;28;20488;-78
2022/04/01 04:25:00;;;;;;;17.95;9.27;;;;;;;1.55;78.08;98754.88;4969301;28;20041;-77
2022/04/01 04:27:29;;;;;;;18.40;8.25;;;;;;;1.60;78.32;98771.13;5008510;28;20068;-78
2022/04/01 04:30:10;;;;;;;15.43;9.50;;;;;;;1.59;77.97;98758.34;5016429;28;20036;-78
2022/04/01 04:32:40;;;;;;;14.70;8.68;;;;;;;1.65;77.98;98773.34;5013774;28;20485;-78
2022/04/01 04:35:09;;;;;;;15.85;9.00;;;;;;;1.58;78.48;98771.59;4997047;28;20494;-78
2022/04/01 04:37:36;;;;;;;15.43;8.93;;;;;;;1.45;78.29;98745.63;5013796;28;20053;-78
2022/04/01 04:40:04;;;;;;;17.63;9.32;;;;;;;1.65;77.40;98785.38;5030155;28;20042;-76
2022/04/01 04:42:33;;;;;;;14.15;8.00;;;;;;;1.66;77.31;98775.72;5000890;28;20064;-77
2022/04/01 04:44:59;;;;;;;13.63;7.85;;;;;;;1.66;76.92;98786.94;5017587;28;20107;-78
2022/04/01 04:47:26;;;;;;;16.98;8.38;;;;;;;1.63;77.63;98787.84;4984677;28;20064;-78
2022/04/01 04:49:55;;;;;;;13.65;8.73;;;;;;;1.57;77.45;98777.69;5004579;28;20025;-78
2022/04/01 04:52:32;;;;;;;14.70;8.85;;;;;;;1.57;77.22;98769.25;5021201;28;20029;-77
2022/04/01 04:54:59;;;;;;;15.95;8.82;;;;;;;1.68;76.77;98775.25;5020453;28;20124;-78
2022/04/01 04:57:26;;;;;;;14.13;8.38;;;;;;;1.59;77.32;98778.78;5004138;28;20047;-78
2022/04/01 04:59:52;;;;;;;15.30;8.55;;;;;;;1.60;77.57;98782.38;5037708;28;20039;-76
2022/04/01 05:02:50;;;;;;;16.77;9.30;;;;;;;1.61;77.60;98792.34;4986164;28;20037;-74
2022/04/01 05:05:23;;;;;;;14.80;8.85;;;;;;;1.62;77.69;98780.69;5019394;28;20033;-75
2022/04/01 05:08:20;;;;;;;15.25;8.90;;;;;;;1.65;77.77;98785.38;5002768;28;20528;-75
2022/04/01 05:11:22;;;;;;;16.98;8.63;;;;;;;1.67;77.58;98770.91;5037294;28;20043;-76
2022/04/01 05:14:06;;;;;;;11.93;8.48;;;;;;;1.72;77.63;98773.13;4974510;28;20027;-76
2022/04/01 05:16:39;;;;;;;22.80;10.75;;;;;;;1.68;77.98;98773.22;5011854;28;20486;-77
2022/04/01 05:19:08;;;;;;;14.98;9.38;;;;;;;1.76;77.52;98789.81;5018785;28;20041;-78
2022/04/01 05:21:41;;;;;;;18.90;9.15;;;;;;;1.79;77.17;98781.25;5036470;28;20061;-77
2022/04/01 05:24:08;;;;;;;18.08;9.43;;;;;;;1.78;77.11;98781.72;5002573;28;20026;-78
2022/04/01 05:26:41;;;;;;;15.52;10.32;;;;;;;1.77;76.82;98777.34;5067688;28;20061;-77
2022/04/01 05:29:13;;;;;;;16.95;9.88;;;;;;;1.80;76.67;98780.03;5052258;28;20493;-77
2022/04/01 05:32:03;;;;;;;15.38;9.45;;;;;;;1.73;76.14;98781.06;5018680;28;20040;-77
2022/04/01 05:34:49;;;;;;;14.35;9.88;;;;;;;1.74;76.96;98774.22;4995160;28;20037;-78
2022/04/01 05:37:17;;;;;;;18.88;9.73;;;;;;;1.74;76.38;98791.03;5052194;28;20105;-78
2022/04/01 05:39:49;;;;;;;14.75;9.73;;;;;;;1.76;76.78;98785.00;5020051;28;20032;-78
2022/04/01 05:42:18;;;;;;;16.93;9.77;;;;;;;1.77;77.02;98775.34;5037581;28;20040;-75
2022/04/01 05:44:44;;;;;;;18.95;10.75;;;;;;;1.85;76.40;98787.84;5030409;28;20787;-75
2022/04/01 05:47:10;;;;;;;17.40;10.02;;;;;;;1.86;75.89;98794.25;5028623;28;20474;-75
2022/04/01 05:50:02;;;;;;;20.88;11.35;;;;;;;1.92;75.35;98790.41;5046660;28;20072;-75
2022/04/01 05:52:30;;;;;;;18.90;10.88;;;;;;;1.93;75.61;98794.75;5047654;28;20064;-76
2022/04/01 05:54:57;;;;;;;18.67;11.30;;;;;;;2.00;75.58;98797.31;5040133;28;20067;-77
2022/04/01 05:57:24;;;;;;;19.77;12.85;;;;;;;1.96;75.34;98798.69;5056574;28;20057;-75
2022/04/01 05:59:50;;;;;;;23.98;15.15;;;;;;;1.96;75.39;98795.88;5038797;28;20052;-75
2022/04/01 06:02:36;;;;;;;19.25;12.25;;;;;;;1.99;75.34;98801.34;5025239;28;20030;-76
2022/04/01 06:05:15;;;;;;;20.63;12.50;;;;;;;2.08;75.10;98803.44;5026161;28;20033;-76
2022/04/01 06:08:01;;;;;;;18.60;12.38;;;;;;;2.11;75.06;98796.91;5003581;28;20025;-76
2022/04/01 06:10:40;;;;;;;17.13;11.60;;;;;;;2.11;75.13;98802.53;5037278;28;20025;-75
2022/04/01 06:13:31;;;;;;;21.77;12.45;;;;;;;2.17;74.85;98806.31;4999757;28;20071;-76
2022/04/01 06:16:38;;;;;;;19.52;13.23;;;;;;;2.21;74.70;98801.34;5017508;28;20029;-78
2022/04/01 06:19:31;;;;;;;27.35;14.40;;;;;;;2.29;74.79;98805.44;5033223;28;20029;-79
2022/04/01 06:22:10;;;;;;;18.95;13.57;;;;;;;2.38;73.79;98805.47;5030434;28;20543;-81
2022/04/01 06:25:16;;;;;;;26.65;14.48;;;;;;;2.37;74.32;98809.53;4977389;28;20041;-82
2022/04/01 06:27:55;;;;;;;24.98;13.73;;;;;;;2.43;73.58;98813.31;4974244;28;20066;-86
2022/04/01 06:30:29;;;;;;;21.15;14.93;;;;;;;2.46;73.81;98817.25;4962348;28;20463;-80
2022/04/01 06:33:57;;;;;;;22.02;13.82;;;;;;;2.46;73.51;98812.41;4986641;28;20038;-83
2022/04/01 06:36:39;;;;;;;21.15;14.07;;;;;;;2.46;73.64;98811.63;5014424;28;20083;-82
2022/04/01 06:39:43;;;;;;;20.67;13.13;;;;;;;2.48;73.96;98811.94;5015246;28;20065;-83
2022/04/01 06:42:26;;;;;;;21.30;13.98;;;;;;;2.55;73.02;98822.91;5014116;28;20069;-76
2022/04/01 06:44:54;;;;;;;21.80;14.43;;;;;;;2.54;73.27;98815.72;5014871;28;20054;-77
2022/04/01 06:47:20;;;;;;;20.60;14.10;;;;;;;2.55;72.75;98811.66;4997714;28;20045;-79
2022/04/01 06:49:45;;;;;;;23.40;13.88;;;;;;;2.56;72.86;98816.03;4989510;28;20034;-80
2022/04/01 06:52:12;;;;;;;36.53;15.15;;;;;;;2.64;72.62;98808.09;4999893;28;20019;-83
2022/04/01 06:54:38;;;;;;;24.95;16.10;;;;;;;2.58;72.59;98791.06;4997982;28;20026;-83
2022/04/01 06:57:19;;;;;;;32.10;17.02;;;;;;;2.71;72.30;98805.81;4979217;28;20050;-77
2022/04/01 06:59:45;;;;;;;20.80;14.47;;;;;;;2.79;72.34;98801.44;4997689;28;20026;-77
2022/04/01 07:02:12;;;;;;;41.58;19.63;;;;;;;2.82;72.34;98796.91;4997362;28;20026;-79
2022/04/01 07:04:38;;;;;;;21.15;14.38;;;;;;;2.92;72.47;98796.50;4996642;28;20026;-81
2022/04/01 07:07:05;;;;;;;19.75;13.30;;;;;;;3.00;71.94;98802.63;4994550;28;20124;-87
2022/04/01 07:09:31;;;;;;;28.33;13.90;;;;;;;3.15;71.79;98809.22;4996155;28;20034;-82
2022/04/01 07:12:01;;;;;;;18.27;12.73;;;;;;;3.23;71.15;98810.47;4994922;28;20026;-81
2022/04/01 07:14:28;;;;;;;20.98;14.35;;;;;;;3.22;69.82;98816.56;4958053;28;20112;-76
2022/04/01 07:17:14;;;;;;;20.45;12.63;;;;;;;3.19;70.00;98809.84;4966503;28;20030;-77
2022/04/01 07:19:40;;;;;;;20.33;13.50;;;;;;;3.11;69.78;98813.44;4988917;28;20038;-78
2022/04/01 07:22:06;;;;;;;23.42;13.40;;;;;;;3.12;70.61;98821.38;4986550;28;20064;-81
2022/04/01 07:24:32;;;;;;;25.23;14.80;;;;;;;3.19;70.19;98831.56;5032896;28;20109;-83
2022/04/01 07:27:01;;;;;;;19.50;13.75;;;;;;;3.20;69.73;98827.50;5033368;28;20112;-81
2022/04/01 07:29:27;;;;;;;19.17;13.82;;;;;;;3.23;70.09;98818.91;5032576;28;20057;-79
2022/04/01 07:34:43;;;;;;;24.88;14.18;;;;;;;3.37;69.71;98828.78;5019321;28;20095;-76
2022/04/01 07:37:10;;;;;;;23.08;13.68;;;;;;;3.49;69.69;98825.06;5032644;28;20112;-78
2022/04/01 07:39:37;;;;;;;17.33;12.18;;;;;;;3.60;68.25;98822.53;4987007;28;20430;-78
2022/04/01 07:42:05;;;;;;;22.23;13.40;;;;;;;3.66;68.00;98831.16;5013142;28;20410;-78
2022/04/01 07:44:31;;;;;;;18.25;12.65;;;;;;;3.73;67.32;98836.47;5013197;28;20029;-77
2022/04/01 07:46:57;;;;;;;18.25;12.88;;;;;;;3.65;67.78;98818.34;5014194;28;20084;-78
2022/04/01 07:49:25;;;;;;;15.10;11.55;;;;;;;3.82;67.45;98834.44;5013230;28;20080;-80
2022/04/01 07:51:52;;;;;;;19.88;11.32;;;;;;;3.91;66.18;98834.44;5014304;28;20497;-77
2022/04/01 07:54:18;;;;;;;18.00;11.93;;;;;;;3.90;66.25;98834.91;5012512;28;20383;-77
2022/04/01 07:56:43;;;;;;;20.40;12.63;;;;;;;4.02;66.81;98836.00;5014256;28;20045;-78
2022/04/01 07:59:14;;;;;;;16.80;12.05;;;;;;;4.22;67.29;98831.44;5011513;28;20029;-80
2022/04/01 08:01:41;;;;;;;17.20;11.25;;;;;;;4.35;65.96;98834.84;5012470;28;20463;-80
2022/04/01 08:04:08;;;;;;;18.13;11.18;;;;;;;4.52;65.06;98840.16;5011880;28;20074;-80
2022/04/01 08:06:33;;;;;;;19.92;11.13;;;;;;;4.60;65.52;98847.00;5013544;28;20046;-78
2022/04/01 08:09:01;;;;;;;17.10;11.63;;;;;;;4.69;63.76;98846.97;5013517;28;20037;-76
2022/04/01 08:11:26;;;;;;;20.88;12.50;;;;;;;4.58;64.41;98838.25;5013930;28;20403;-79
2022/04/01 08:14:06;;;;;;;21.50;12.25;;;;;;;4.69;64.68;98849.78;5012724;28;20480;-78
2022/04/01 08:16:34;;;;;;;14.38;10.68;;;;;;;4.72;64.40;98854.50;5012097;28;20057;-79
2022/04/01 08:18:59;;;;;;;21.02;11.82;;;;;;;4.82;64.29;98856.03;5012241;28;20057;-78
2022/04/01 08:21:26;;;;;;;19.33;13.52;;;;;;;4.78;64.48;98856.19;5011669;28;20042;-75
2022/04/01 08:23:52;;;;;;;17.85;11.57;;;;;;;4.84;64.13;98861.19;5013767;28;20042;-76
2022/04/01 08:26:17;;;;;;;22.65;13.10;;;;;;;4.72;64.93;98846.81;5012532;28;20120;-79
2022/04/01 08:28:43;;;;;;;19.50;13.90;;;;;;;4.76;67.49;98860.75;5012668;28;20022;-74
2022/04/01 08:31:10;;;;;;;30.52;18.38;;;;;;;4.60;67.93;98861.09;4995101;28;20042;-74
2022/04/01 08:33:37;;;;;;;21.38;13.48;;;;;;;4.62;66.32;98870.66;5019315;28;20048;-78
2022/04/01 08:36:02;;;;;;;26.88;15.02;;;;;;;4.48;65.90;98874.16;5016007;28;20053;-75
2022/04/01 08:38:28;;;;;;;28.58;15.27;;;;;;;4.32;66.96;98868.84;5013442;28;20030;-82
2022/04/01 08:40:55;;;;;;;22.63;15.13;;;;;;;4.00;67.88;98830.84;5012155;28;20072;-84
2022/04/01 08:43:30;;;;;;;23.27;14.70;;;;;;;4.27;68.10;98877.94;4997078;28;20042;-75
2022/04/01 08:46:11;;;;;;;21.27;15.45;;;;;;;4.22;66.42;98884.97;5013614;28;20546;-72
2022/04/01 08:48:39;;;;;;;22.70;15.18;;;;;;;4.13;67.54;98881.38;5014027;28;20033;-79
2022/04/01 08:51:07;;;;;;;23.83;15.35;;;;;;;4.05;67.85;98883.72;4999686;28;20041;-74
2022/04/01 08:53:46;;;;;;;23.60;15.68;;;;;;;3.93;67.34;98884.69;5012709;28;20566;-77
2022/04/01 08:56:16;;;;;;;23.88;15.68;;;;;;;3.79;68.31;98890.94;5012668;28;20026;-74
2022/04/01 08:58:41;;;;;;;22.88;15.20;;;;;;;3.73;69.31;98884.34;5014697;28;20030;-79
2022/04/01 09:01:09;;;;;;;24.33;15.00;;;;;;;3.80;68.58;98898.88;5021697;28;20128;-78
2022/04/01 09:03:35;;;;;;;21.00;14.23;;;;;;;3.76;68.01;98889.03;5016274;28;20105;-80
2022/04/01 09:06:03;;;;;;;24.55;15.82;;;;;;;3.71;68.34;98889.66;4983159;28;20045;-83
2022/04/01 09:08:39;;;;;;;25.70;15.48;;;;;;;3.59;69.03;98882.94;4996684;28;20026;-80
2022/04/01 09:11:16;;;;;;;24.02;15.32;;;;;;;3.64;69.14;98882.31;5013338;28;20076;-84
2022/04/01 09:13:42;;;;;;;24.45;15.15;;;;;;;3.72;69.11;98891.22;5016119;28;20061;-79
2022/04/01 09:16:31;;;;;;;27.77;13.40;;;;;;;3.88;67.94;98886.09;5018928;28;20022;-79
2022/04/01 09:19:05;;;;;;;23.85;14.45;;;;;;;3.82;68.85;98889.97;5022980;28;20026;-82
2022/04/01 09:21:34;;;;;;;23.75;13.63;;;;;;;3.91;69.30;98895.63;4985994;28;20049;-79
2022/04/01 09:24:01;;;;;;;24.40;13.73;;;;;;;3.98;69.08;98889.69;5019689;28;20026;-78
2022/04/01 09:26:35;;;;;;;26.65;15.50;;;;;;;4.00;69.03;98892.81;5026760;28;20137;-80
2022/04/01 09:29:04;;;;;;;27.70;14.15;;;;;;;4.01;69.55;98897.19;5024742;28;20041;-80
2022/04/01 09:31:36;;;;;;;33.92;15.48;;;;;;;4.05;69.80;98900.63;5018505;28;20037;-78
2022/04/01 09:34:09;;;;;;;43.60;16.05;;;;;;;4.10;71.00;98896.41;5021216;28;20045;-80
2022/04/01 09:36:39;;;;;;;23.67;14.43;;;;;;;4.11;71.50;98900.78;5011005;28;20372;-83
2022/04/01 09:39:15;;;;;;;30.17;14.00;;;;;;;4.11;70.86;98907.22;5019771;28;20034;-85
2022/04/01 09:41:58;;;;;;;26.77;15.30;;;;;;;4.10;71.98;98902.03;5017710;28;20041;-84
2022/04/01 09:44:37;;;;;;;22.88;14.10;;;;;;;4.17;70.76;98901.72;5016815;28;20026;-83
2022/04/01 09:47:07;;;;;;;29.45;13.00;;;;;;;4.20;69.95;98903.59;4997909;28;20037;-79
2022/04/01 09:49:32;;;;;;;34.97;17.75;;;;;;;4.16;68.93;98900.94;5018345;28;20065;-78
2022/04/01 09:51:59;;;;;;;29.77;14.40;;;;;;;4.14;69.44;98908.31;5022356;28;20113;-77
2022/04/01 09:54:25;;;;;;;30.05;15.38;;;;;;;4.12;69.55;98900.31;5023966;28;20124;-76
2022/04/01 09:56:54;;;;;;;43.95;16.23;;;;;;;4.17;69.20;98902.50;5024254;28;20490;-78
2022/04/01 09:59:22;;;;;;;38.28;18.35;;;;;;;4.21;68.54;98905.16;5016229;28;20040;-79
2022/04/01 10:01:48;;;;;;;44.70;16.58;;;;;;;4.33;66.97;98907.06;5017449;28;20481;-75
2022/04/01 10:04:14;;;;;;;20.23;11.90;;;;;;;4.31;67.18;98898.28;5014911;28;20038;-74
2022/04/01 10:06:41;;;;;;;45.03;14.90;;;;;;;4.26;67.52;98887.63;4999002;28;20033;-78
2022/04/01 10:09:09;;;;;;;35.30;13.73;;;;;;;4.39;67.69;98901.56;4983297;28;20555;-79
2022/04/01 10:11:43;;;;;;;27.13;11.18;;;;;;;4.33;67.38;98902.19;5017456;28;20497;-79
2022/04/01 10:14:12;;;;;;;23.63;12.85;;;;;;;4.33;67.26;98913.47;5013932;28;20478;-79
2022/04/01 10:16:42;;;;;;;44.80;13.77;;;;;;;4.31;68.20;98909.53;5014296;28;20022;-80
2022/04/01 10:19:14;;;;;;;20.17;11.05;;;;;;;4.29;66.95;98904.38;5016147;28;20030;-79
2022/04/01 10:21:44;;;;;;;21.00;11.48;;;;;;;4.26;67.19;98910.97;5024323;28;20365;-80
2022/04/01 10:24:34;;;;;;;16.52;9.82;;;;;;;4.24;66.63;98915.53;5035721;28;20467;-80
2022/04/01 10:27:26;;;;;;;14.85;8.98;;;;;;;4.16;66.47;98906.59;5035809;28;20047;-80
2022/04/01 10:29:57;;;;;;;18.65;10.10;;;;;;;4.16;67.72;98905.78;5016959;28;20026;-78
2022/04/01 10:32:34;;;;;;;17.88;9.68;;;;;;;4.24;67.05;98905.00;4984295;28;20084;-80
2022/04/01 10:35:01;;;;;;;36.75;11.38;;;;;;;4.23;66.74;98914.72;5018456;28;20029;-81
2022/04/01 10:37:30;;;;;;;40.67;11.35;;;;;;;4.33;67.03;98915.50;5052352;28;20550;-77
2022/04/01 10:40:04;;;;;;;16.80;8.35;;;;;;;4.41;67.32;98918.78;5051388;28;20556;-74
2022/04/01 10:42:32;;;;;;;20.40;9.90;;;;;;;4.48;66.75;98915.66;5035753;28;20017;-80
2022/04/01 10:45:16;;;;;;;20.05;9.15;;;;;;;4.51;66.11;98923.94;5052172;28;20034;-76
2022/04/01 10:53:38;;;;;;;15.20;8.65;;;;;;;4.63;65.96;98931.44;5048472;28;20397;-76
2022/04/01 10:56:21;;;;;;;25.65;9.27;;;;;;;4.67;64.96;98925.63;5035545;28;20029;-80
2022/04/01 10:59:13;;;;;;;13.32;8.30;;;;;;;4.67;65.40;98926.44;5035088;28;20426;-76
2022/04/01 11:01:51;;;;;;;22.70;10.55;;;;;;;4.73;65.61;98921.72;5034801;28;20430;-79
2022/04/01 11:04:18;;;;;;;22.02;8.35;;;;;;;4.82;65.10;98926.56;5036971;28;20033;-78
2022/04/01 11:06:50;;;;;;;23.65;10.07;;;;;;;4.87;65.25;98930.75;5037956;28;20029;-81
2022/04/01 11:09:38;;;;;;;17.45;8.63;;;;;;;4.91;64.04;98923.69;5019131;28;20021;-79
2022/04/01 11:12:21;;;;;;;19.23;8.60;;;;;;;4.85;63.51;98924.81;5038630;28;20029;-79
2022/04/01 11:15:20;;;;;;;23.23;10.10;;;;;;;4.82;64.68;98935.00;5056418;28;20021;-77
2022/04/01 11:17:51;;;;;;;19.20;8.02;;;;;;;4.90;64.08;98929.81;5054757;28;20029;-79
2022/04/01 11:20:27;;;;;;;21.48;9.85;;;;;;;4.89;63.86;98926.19;5053155;28;20034;-76
2022/04/01 11:22:53;;;;;;;18.15;8.65;;;;;;;4.96;64.25;98922.28;5051183;28;20051;-75
2022/04/01 11:25:27;;;;;;;22.23;9.43;;;;;;;5.07;63.13;98928.19;5049657;28;20108;-76
2022/04/01 11:28:01;;;;;;;21.40;8.07;;;;;;;5.13;62.53;98921.41;5042427;28;20029;-75
2022/04/01 11:30:29;;;;;;;15.52;7.78;;;;;;;5.19;63.57;98930.03;5055724;28;20021;-79
2022/04/01 11:32:59;;;;;;;15.10;9.32;;;;;;;5.23;63.02;98927.81;5031596;28;20467;-78
2022/04/01 11:35:27;;;;;;;16.65;8.88;;;;;;;5.23;62.50;98928.59;5063539;28;20022;-79
2022/04/01 11:37:53;;;;;;;22.70;8.98;;;;;;;5.26;63.93;98932.50;5060621;28;20083;-78
2022/04/01 11:40:27;;;;;;;20.63;9.50;;;;;;;5.30;62.87;98927.47;5017301;28;20116;-77
2022/04/01 11:43:02;;;;;;;24.85;7.85;;;;;;;5.30;62.67;98932.34;5002850;28;20029;-77
2022/04/01 11:45:44;;;;;;;17.90;8.70;;;;;;;5.17;62.92;98930.53;5050387;28;20433;-76
2022/04/01 11:48:31;;;;;;;17.52;8.43;;;;;;;5.15;63.52;98918.91;5034134;28;20100;-77
2022/04/01 11:51:06;;;;;;;17.17;8.75;;;;;;;5.22;63.00;98927.06;5034835;28;20025;-78
2022/04/01 11:53:37;;;;;;;20.17;9.27;;;;;;;5.26;62.97;98924.03;5035711;28;20030;-79
2022/04/01 11:56:12;;;;;;;18.88;9.35;;;;;;;5.39;62.82;98924.59;5019342;28;20095;-79
2022/04/01 11:58:46;;;;;;;13.98;8.50;;;;;;;5.29;62.59;98908.97;5037018;28;20108;-77
2022/04/01 12:01:13;;;;;;;22.95;9.82;;;;;;;5.34;62.46;98916.78;5033941;28;20075;-78
2022/04/01 12:03:38;;;;;;;16.52;8.70;;;;;;;5.41;62.86;98912.84;5032637;28;20021;-75